createdAt,value
2023-04-08T00:00:46.413Z,99.90
2023-04-08T00:03:13.253Z,99.90
2023-04-08T00:05:40.135Z,99.90
2023-04-08T00:08:06.822Z,99.90
2023-04-08T00:10:33.696Z,99.90
2023-04-08T00:13:01.100Z,99.90
2023-04-08T00:15:27.813Z,99.90
2023-04-08T00:17:54.747Z,99.90
2023-04-08T00:20:23.802Z,99.90
2023-04-08T00:22:50.600Z,99.90
2023-04-08T00:25:17.284Z,99.90
2023-04-08T00:27:44.000Z,99.90
2023-04-08T00:30:11.684Z,99.90
2023-04-08T00:32:38.514Z,99.90
2023-04-08T00:35:05.529Z,99.90
2023-04-08T00:37:32.791Z,99.90
2023-04-08T00:39:59.539Z,99.90
2023-04-08T00:42:26.372Z,99.90
2023-04-08T00:44:53.094Z,99.90
2023-04-08T00:47:19.793Z,99.90
2023-04-08T00:49:46.544Z,99.90
2023-04-08T00:52:13.608Z,99.90
2023-04-08T00:54:41.324Z,99.90
2023-04-08T00:57:08.098Z,99.90
2023-04-08T00:59:36.209Z,99.90
2023-04-08T01:02:06.338Z,99.90
2023-04-08T01:04:59.493Z,99.90
2023-04-08T01:07:34.055Z,99.90
2023-04-08T01:10:12.514Z,99.90
2023-04-08T01:12:42.538Z,99.90
2023-04-08T01:15:10.339Z,99.90
2023-04-08T01:17:37.124Z,99.90
2023-04-08T01:20:04.617Z,99.90
2023-04-08T01:22:43.324Z,99.90
2023-04-08T01:25:22.495Z,99.90
2023-04-08T01:27:49.425Z,99.90
2023-04-08T01:30:17.971Z,99.90
2023-04-08T01:32:45.361Z,99.90
2023-04-08T01:35:12.105Z,99.90
2023-04-08T01:37:39.013Z,99.90
2023-04-08T01:40:07.722Z,99.90
2023-04-08T01:42:34.516Z,99.90
2023-04-08T01:45:01.215Z,99.90
2023-04-08T01:47:28.130Z,99.90
2023-04-08T01:49:54.969Z,99.90
2023-04-08T01:52:22.048Z,99.90
2023-04-08T01:54:48.850Z,99.90
2023-04-08T01:57:27.818Z,99.90
2023-04-08T01:59:58.036Z,99.90
2023-04-08T02:02:26.046Z,99.90
2023-04-08T02:04:54.217Z,99.90
2023-04-08T02:07:21.074Z,99.90
2023-04-08T02:09:47.901Z,99.90
2023-04-08T02:12:14.700Z,99.90
2023-04-08T02:14:41.434Z,99.90
2023-04-08T02:17:35.827Z,99.90
2023-04-08T02:20:19.215Z,99.90
2023-04-08T02:23:09.347Z,99.90
2023-04-08T02:25:40.416Z,99.90
2023-04-08T02:28:08.933Z,99.90
2023-04-08T02:30:36.512Z,99.90
2023-04-08T02:33:06.392Z,99.90
2023-04-08T02:35:33.203Z,99.90
2023-04-08T02:37:59.903Z,99.90
2023-04-08T02:40:27.127Z,99.90
2023-04-08T02:42:54.235Z,99.90
2023-04-08T02:45:21.298Z,99.90
2023-04-08T02:47:48.068Z,99.90
2023-04-08T02:50:14.765Z,99.90
2023-04-08T02:52:41.513Z,99.90
2023-04-08T02:55:10.063Z,99.90
2023-04-08T02:57:41.097Z,99.90
2023-04-08T03:00:08.467Z,99.90
2023-04-08T03:02:35.420Z,99.90
2023-04-08T03:05:02.385Z,99.90
2023-04-08T03:07:29.071Z,99.90
2023-04-08T03:09:56.013Z,99.90
2023-04-08T03:12:22.911Z,99.90
2023-04-08T03:14:50.257Z,99.90
2023-04-08T03:17:16.989Z,99.90
2023-04-08T03:19:43.649Z,99.90
2023-04-08T03:22:10.464Z,99.90
2023-04-08T03:24:37.397Z,99.90
2023-04-08T03:27:04.127Z,99.90
2023-04-08T03:29:30.825Z,99.90
2023-04-08T03:32:01.471Z,99.90
2023-04-08T03:34:28.640Z,99.90
2023-04-08T03:36:55.664Z,99.90
2023-04-08T03:39:22.540Z,99.90
2023-04-08T03:41:49.307Z,99.90
2023-04-08T03:44:16.060Z,99.90
2023-04-08T03:46:42.828Z,99.90
2023-04-08T03:49:09.803Z,99.90
2023-04-08T03:51:36.526Z,99.90
2023-04-08T03:54:03.427Z,99.90
2023-04-08T03:56:30.466Z,99.90
2023-04-08T03:58:57.287Z,99.90
2023-04-08T04:01:24.124Z,99.90
2023-04-08T04:03:51.063Z,99.90
2023-04-08T04:06:18.063Z,99.90
2023-04-08T04:08:44.748Z,99.90
2023-04-08T04:11:11.432Z,99.90
2023-04-08T04:13:38.112Z,99.90
2023-04-08T04:16:05.274Z,99.90
2023-04-08T04:18:32.154Z,99.90
2023-04-08T04:20:58.861Z,99.90
2023-04-08T04:23:25.952Z,99.90
2023-04-08T04:25:52.799Z,99.90
2023-04-08T04:28:19.550Z,99.90
2023-04-08T04:30:46.341Z,99.90
2023-04-08T04:33:13.141Z,99.90
2023-04-08T04:35:40.601Z,99.90
2023-04-08T04:38:12.716Z,99.90
2023-04-08T04:40:40.768Z,99.90
2023-04-08T04:43:07.992Z,99.90
2023-04-08T04:45:34.844Z,99.90
2023-04-08T04:48:01.653Z,99.90
2023-04-08T04:50:28.467Z,99.90
2023-04-08T04:52:55.257Z,99.90
2023-04-08T04:55:24.864Z,99.90
2023-04-08T04:57:51.621Z,99.90
2023-04-08T05:00:18.397Z,99.90
2023-04-08T05:02:45.387Z,99.90
2023-04-08T05:05:12.375Z,99.90
2023-04-08T05:07:39.569Z,99.90
2023-04-08T05:10:06.952Z,99.90
2023-04-08T05:12:33.714Z,99.90
2023-04-08T05:15:00.750Z,99.90
2023-04-08T05:17:27.609Z,99.90
2023-04-08T05:19:54.668Z,99.90
2023-04-08T05:22:21.439Z,99.90
2023-04-08T05:24:48.268Z,99.90
2023-04-08T05:27:14.975Z,99.90
2023-04-08T05:29:41.729Z,99.90
2023-04-08T05:32:08.593Z,99.90
2023-04-08T05:34:35.520Z,99.90
2023-04-08T05:37:02.260Z,99.90
2023-04-08T05:39:29.030Z,99.90
2023-04-08T05:41:56.134Z,99.90
2023-04-08T05:44:22.885Z,99.90
2023-04-08T05:46:49.689Z,99.90
2023-04-08T05:49:17.448Z,99.90
2023-04-08T05:51:44.490Z,99.90
2023-04-08T05:54:11.355Z,99.90
2023-04-08T05:56:38.085Z,99.90
2023-04-08T05:59:04.863Z,99.90
2023-04-08T06:01:32.036Z,99.90
2023-04-08T06:03:59.018Z,99.90
2023-04-08T06:06:26.174Z,99.90
2023-04-08T06:08:53.149Z,99.90
2023-04-08T06:11:19.940Z,99.90
2023-04-08T06:13:46.791Z,99.90
2023-04-08T06:16:14.568Z,99.90
2023-04-08T06:18:41.594Z,99.90
2023-04-08T06:21:08.395Z,99.90
2023-04-08T06:23:35.451Z,99.90
2023-04-08T06:26:02.176Z,99.90
2023-04-08T06:28:32.062Z,99.90
2023-04-08T06:30:59.301Z,99.90
2023-04-08T06:33:26.071Z,99.90
2023-04-08T06:35:52.918Z,99.90
2023-04-08T06:38:19.839Z,99.90
2023-04-08T06:40:46.555Z,99.90
2023-04-08T06:43:13.538Z,99.90
2023-04-08T06:45:40.355Z,99.90
2023-04-08T06:48:09.092Z,99.90
2023-04-08T06:50:36.144Z,99.90
2023-04-08T06:53:02.838Z,99.90
2023-04-08T06:55:29.506Z,99.90
2023-04-08T06:57:56.198Z,99.90
2023-04-08T07:00:22.934Z,99.90
2023-04-08T07:02:49.843Z,99.90
2023-04-08T07:05:16.688Z,99.90
2023-04-08T07:07:43.403Z,99.90
2023-04-08T07:10:14.388Z,99.90
2023-04-08T07:12:41.146Z,99.90
2023-04-08T07:15:08.645Z,99.90
2023-04-08T07:17:35.407Z,99.90
2023-04-08T07:20:02.141Z,99.90
2023-04-08T07:22:29.038Z,99.90
2023-04-08T07:24:56.546Z,99.90
2023-04-08T07:27:25.916Z,99.90
2023-04-08T07:29:54.569Z,99.90
2023-04-08T07:32:21.860Z,99.90
2023-04-08T07:34:48.709Z,99.90
2023-04-08T07:37:15.396Z,99.80
2023-04-08T07:39:42.062Z,99.90
2023-04-08T07:42:08.757Z,98.50
2023-04-08T07:44:35.840Z,98.20
2023-04-08T07:47:02.513Z,98.30
2023-04-08T07:49:29.183Z,95.30
2023-04-08T07:51:55.974Z,92.20
2023-04-08T07:54:22.656Z,91.20
2023-04-08T07:56:49.346Z,91.90
2023-04-08T07:59:16.040Z,89.90
2023-04-08T08:01:42.980Z,84.20
2023-04-08T08:04:09.946Z,87.40
2023-04-08T08:06:36.894Z,82.80
2023-04-08T08:09:03.690Z,81.50
2023-04-08T08:11:30.573Z,80.80
2023-04-08T08:13:57.346Z,80.40
2023-04-08T08:16:27.296Z,73.70
2023-04-08T08:18:54.079Z,68.60
2023-04-08T08:21:20.766Z,68.30
2023-04-08T08:23:48.104Z,69.70
2023-04-08T08:26:14.901Z,64.90
2023-04-08T08:28:42.014Z,63.30
2023-04-08T08:31:09.149Z,58.70
2023-04-08T08:33:36.001Z,54.90
2023-04-08T08:36:05.163Z,51.60
2023-04-08T08:38:32.039Z,46.60
2023-04-08T08:40:59.094Z,51.90
2023-04-08T08:43:26.508Z,44.80
2023-04-08T08:45:53.996Z,46.90
2023-04-08T08:48:21.281Z,42.60
2023-04-08T08:50:55.722Z,38.20
2023-04-08T08:53:23.361Z,35.80
2023-04-08T08:56:16.609Z,36.40
2023-04-08T08:58:39.250Z,33.60
2023-04-08T09:01:32.391Z,33.50
2023-04-08T09:04:12.996Z,27.30
2023-04-08T09:06:40.444Z,25.20
2023-04-08T09:09:10.679Z,29.90
2023-04-08T09:11:42.034Z,30.70
2023-04-08T09:14:24.933Z,31.00
2023-04-08T09:16:53.051Z,28.80
2023-04-08T09:19:19.868Z,29.40
2023-04-08T09:21:47.767Z,28.60
2023-04-08T09:24:30.996Z,28.70
2023-04-08T09:26:57.825Z,19.60
2023-04-08T09:29:26.967Z,22.90
2023-04-08T09:31:59.199Z,22.40
2023-04-08T09:34:27.394Z,19.90
2023-04-08T09:36:54.777Z,18.40
2023-04-08T09:39:21.689Z,18.40
2023-04-08T09:41:49.455Z,17.60
2023-04-08T09:44:19.673Z,12.90
2023-04-08T09:47:06.935Z,12.20
2023-04-08T09:49:58.478Z,12.40
2023-04-08T09:52:33.391Z,11.00
2023-04-08T09:55:06.679Z,13.90
2023-04-08T09:57:56.653Z,11.20
2023-04-08T10:00:26.253Z,9.10
2023-04-08T10:03:17.379Z,10.30
2023-04-08T10:05:44.196Z,9.60
2023-04-08T10:08:11.104Z,10.00
2023-04-08T10:10:41.258Z,13.40
2023-04-08T10:13:08.053Z,10.90
2023-04-08T10:15:36.162Z,9.70
2023-04-08T10:18:06.295Z,11.40
2023-04-08T10:20:38.827Z,13.60
2023-04-08T10:23:14.003Z,14.00
2023-04-08T10:25:48.158Z,13.50
2023-04-08T10:28:15.490Z,12.80
2023-04-08T10:30:46.241Z,11.50
2023-04-08T10:33:18.201Z,9.20
2023-04-08T10:35:50.539Z,10.90
2023-04-08T10:38:17.770Z,9.80
2023-04-08T10:40:45.014Z,10.40
2023-04-08T10:43:12.730Z,11.60
2023-04-08T10:45:40.666Z,10.20
2023-04-08T10:48:18.128Z,11.90
2023-04-08T10:50:58.132Z,9.30
2023-04-08T10:53:39.143Z,8.00
2023-04-08T10:56:07.324Z,9.40
2023-04-08T10:58:35.303Z,9.60
2023-04-08T11:01:08.439Z,8.70
2023-04-08T11:03:36.340Z,7.30
2023-04-08T11:06:03.620Z,8.20
2023-04-08T11:08:32.304Z,9.60
2023-04-08T11:11:01.711Z,10.40
2023-04-08T11:13:28.990Z,10.00
2023-04-08T11:15:59.090Z,8.50
2023-04-08T11:18:26.276Z,6.50
2023-04-08T11:20:53.368Z,8.00
2023-04-08T11:23:23.164Z,8.90
2023-04-08T11:25:50.163Z,9.70
2023-04-08T11:28:17.000Z,9.70
2023-04-08T11:30:44.452Z,7.70
2023-04-08T11:33:11.326Z,6.90
2023-04-08T11:35:42.009Z,5.70
2023-04-08T11:38:09.545Z,5.60
2023-04-08T11:40:36.857Z,6.50
2023-04-08T11:43:10.910Z,5.50
2023-04-08T11:45:41.851Z,4.00
2023-04-08T11:48:16.539Z,5.10
2023-04-08T11:50:43.905Z,6.80
2023-04-08T11:53:20.813Z,7.20
2023-04-08T11:55:48.620Z,5.80
2023-04-08T11:58:15.900Z,6.20
2023-04-08T12:00:43.628Z,6.00
2023-04-08T12:03:11.283Z,5.50
2023-04-08T12:05:38.096Z,5.70
2023-04-08T12:08:05.033Z,6.60
2023-04-08T12:10:31.713Z,5.50
2023-04-08T12:12:58.452Z,6.70
2023-04-08T12:15:25.248Z,6.50
2023-04-08T12:17:51.961Z,5.90
2023-04-08T12:20:18.808Z,5.10
2023-04-08T12:22:45.569Z,4.40
2023-04-08T12:25:12.666Z,4.80
2023-04-08T12:27:39.459Z,5.70
2023-04-08T12:30:06.786Z,2.10
2023-04-08T12:32:33.643Z,2.10
2023-04-08T12:35:00.605Z,4.40
2023-04-08T12:37:27.965Z,4.70
2023-04-08T12:39:54.718Z,4.30
2023-04-08T12:42:21.661Z,3.30
2023-04-08T12:44:48.807Z,3.80
2023-04-08T12:47:15.695Z,4.90
2023-04-08T12:49:49.515Z,1.00
2023-04-08T12:52:17.403Z,1.20
2023-04-08T12:54:44.408Z,1.00
2023-04-08T12:57:12.060Z,1.60
2023-04-08T12:59:40.057Z,3.30
2023-04-08T13:02:07.941Z,3.10
2023-04-08T13:04:35.036Z,2.10
2023-04-08T13:07:02.504Z,2.70
2023-04-08T13:09:30.674Z,2.50
2023-04-08T13:11:58.325Z,1.20
2023-04-08T13:14:25.410Z,1.00
2023-04-08T13:16:53.027Z,1.70
2023-04-08T13:19:20.378Z,1.20
2023-04-08T13:21:47.125Z,3.30
2023-04-08T13:24:13.934Z,1.00
2023-04-08T13:26:43.810Z,3.40
2023-04-08T13:29:10.642Z,2.80
2023-04-08T13:31:37.459Z,2.60
2023-04-08T13:34:04.317Z,1.00
2023-04-08T13:36:31.586Z,1.00
2023-04-08T13:38:58.524Z,1.00
2023-04-08T13:41:25.468Z,1.00
2023-04-08T13:43:52.347Z,1.50
2023-04-08T13:46:19.226Z,1.20
2023-04-08T13:48:46.548Z,1.80
2023-04-08T13:51:13.364Z,2.10
2023-04-08T13:53:40.137Z,2.20
2023-04-08T13:56:07.201Z,2.50
2023-04-08T13:58:34.082Z,1.70
2023-04-08T14:01:00.858Z,2.50
2023-04-08T14:03:28.126Z,1.00
2023-04-08T14:05:54.937Z,1.00
2023-04-08T14:08:25.448Z,1.00
2023-04-08T14:10:53.056Z,1.80
2023-04-08T14:13:19.805Z,1.90
2023-04-08T14:15:47.158Z,1.00
2023-04-08T14:18:14.162Z,2.20
2023-04-08T14:20:41.425Z,1.10
2023-04-08T14:23:08.110Z,1.00
2023-04-08T14:25:34.833Z,1.10
2023-04-08T14:28:01.720Z,1.00
2023-04-08T14:30:28.844Z,1.10
2023-04-08T14:32:55.712Z,1.50
2023-04-08T14:35:22.990Z,1.10
2023-04-08T14:37:49.787Z,1.00
2023-04-08T14:40:16.529Z,1.60
2023-04-08T14:42:44.515Z,2.20
2023-04-08T14:45:11.430Z,2.20
2023-04-08T14:47:38.203Z,2.10
2023-04-08T14:50:05.370Z,2.20
2023-04-08T14:52:32.177Z,1.20
2023-04-08T14:54:58.923Z,1.30
2023-04-08T14:57:25.647Z,2.80
2023-04-08T14:59:52.499Z,1.10
2023-04-08T15:02:19.416Z,1.00
2023-04-08T15:04:46.255Z,1.80
2023-04-08T15:07:13.230Z,1.00
2023-04-08T15:09:40.321Z,1.00
2023-04-08T15:12:07.089Z,1.30
2023-04-08T15:14:33.834Z,1.60
2023-04-08T15:17:00.668Z,2.10
2023-04-08T15:19:27.339Z,2.60
2023-04-08T15:21:54.083Z,3.50
2023-04-08T15:24:20.973Z,3.80
2023-04-08T15:26:47.693Z,3.70
2023-04-08T15:29:14.371Z,4.20
2023-04-08T15:31:41.479Z,2.90
2023-04-08T15:34:08.237Z,3.40
2023-04-08T15:36:37.346Z,4.20
2023-04-08T15:39:04.435Z,4.30
2023-04-08T15:41:32.403Z,5.90
2023-04-08T15:43:59.152Z,5.20
2023-04-08T15:46:25.878Z,5.70
2023-04-08T15:48:53.000Z,6.70
2023-04-08T15:51:20.511Z,7.70
2023-04-08T15:53:47.601Z,3.30
2023-04-08T15:56:14.946Z,2.50
2023-04-08T15:58:42.204Z,2.90
2023-04-08T16:01:08.944Z,2.60
2023-04-08T16:03:35.794Z,3.60
2023-04-08T16:06:02.763Z,3.30
2023-04-08T16:08:30.571Z,3.60
2023-04-08T16:11:04.345Z,3.60
2023-04-08T16:13:31.314Z,3.50
2023-04-08T16:15:58.552Z,3.80
2023-04-08T16:18:25.985Z,4.30
2023-04-08T16:20:53.062Z,5.70
2023-04-08T16:23:19.947Z,4.20
2023-04-08T16:25:47.238Z,9.30
2023-04-08T16:28:13.918Z,9.60
2023-04-08T16:30:43.884Z,9.90
2023-04-08T16:33:11.458Z,11.20
2023-04-08T16:35:38.600Z,10.00
2023-04-08T16:38:06.083Z,10.00
2023-04-08T16:40:33.170Z,9.90
2023-04-08T16:43:01.010Z,10.50
2023-04-08T16:45:31.206Z,10.60
2023-04-08T16:47:58.199Z,10.70
2023-04-08T16:50:25.265Z,10.20
2023-04-08T16:52:52.042Z,11.50
2023-04-08T16:55:19.370Z,11.00
2023-04-08T16:57:46.299Z,11.30
2023-04-08T17:00:13.446Z,12.00
2023-04-08T17:02:40.512Z,13.30
2023-04-08T17:05:07.813Z,12.00
2023-04-08T17:07:34.653Z,11.60
2023-04-08T17:10:01.340Z,11.80
2023-04-08T17:12:28.106Z,12.40
2023-04-08T17:14:54.917Z,12.70
2023-04-08T17:17:21.689Z,13.10
2023-04-08T17:19:48.595Z,12.70
2023-04-08T17:22:15.352Z,13.70
2023-04-08T17:24:42.158Z,13.00
2023-04-08T17:27:09.149Z,13.10
2023-04-08T17:29:35.874Z,14.20
2023-04-08T17:32:02.796Z,14.00
2023-04-08T17:34:31.347Z,14.40
2023-04-08T17:36:58.067Z,14.10
2023-04-08T17:39:24.853Z,14.50
2023-04-08T17:41:51.629Z,16.20
2023-04-08T17:44:18.430Z,15.80
2023-04-08T17:46:45.282Z,16.50
2023-04-08T17:49:14.054Z,16.40
2023-04-08T17:51:41.005Z,16.60
2023-04-08T17:54:07.774Z,17.00
2023-04-08T17:56:34.572Z,16.80
2023-04-08T17:59:01.848Z,17.50
2023-04-08T18:01:28.728Z,17.40
2023-04-08T18:03:56.081Z,17.60
2023-04-08T18:06:23.050Z,17.20
2023-04-08T18:08:49.879Z,17.70
2023-04-08T18:11:16.873Z,17.80
2023-04-08T18:13:43.665Z,18.50
2023-04-08T18:16:17.448Z,17.40
2023-04-08T18:18:44.570Z,18.10
2023-04-08T18:21:11.251Z,18.50
2023-04-08T18:23:37.950Z,18.40
2023-04-08T18:26:04.743Z,17.20
2023-04-08T18:28:31.626Z,18.30
2023-04-08T18:30:58.371Z,18.60
2023-04-08T18:33:25.438Z,18.50
2023-04-08T18:35:52.818Z,19.30
2023-04-08T18:38:19.625Z,19.50
2023-04-08T18:40:46.674Z,19.60
2023-04-08T18:43:13.790Z,20.30
2023-04-08T18:45:41.237Z,19.80
2023-04-08T18:48:08.665Z,16.60
2023-04-08T18:50:35.406Z,17.30
2023-04-08T18:53:02.285Z,17.50
2023-04-08T18:55:28.996Z,18.90
2023-04-08T18:57:56.175Z,18.20
2023-04-08T19:00:23.036Z,20.20
2023-04-08T19:02:50.196Z,24.50
2023-04-08T19:05:17.459Z,23.50
2023-04-08T19:07:44.214Z,24.50
2023-04-08T19:10:11.232Z,24.00
2023-04-08T19:12:37.949Z,25.50
2023-04-08T19:15:05.337Z,25.10
2023-04-08T19:17:32.118Z,27.50
2023-04-08T19:19:58.944Z,26.90
2023-04-08T19:22:25.790Z,32.20
2023-04-08T19:24:54.477Z,33.90
2023-04-08T19:27:21.838Z,37.50
2023-04-08T19:29:48.569Z,41.50
2023-04-08T19:32:15.475Z,42.40
2023-04-08T19:34:42.410Z,42.00
2023-04-08T19:37:09.277Z,47.60
2023-04-08T19:39:35.965Z,49.60
2023-04-08T19:42:02.633Z,58.70
2023-04-08T19:44:29.330Z,58.60
2023-04-08T19:46:57.760Z,60.60
2023-04-08T19:49:24.894Z,60.90
2023-04-08T19:51:51.851Z,70.20
2023-04-08T19:54:18.550Z,68.70
2023-04-08T19:56:45.650Z,75.20
2023-04-08T19:59:12.410Z,75.20
2023-04-08T20:01:40.416Z,81.10
2023-04-08T20:04:07.258Z,82.70
2023-04-08T20:06:34.768Z,85.00
2023-04-08T20:09:05.568Z,87.10
2023-04-08T20:11:33.251Z,90.90
2023-04-08T20:14:00.023Z,91.30
2023-04-08T20:16:26.934Z,91.60
2023-04-08T20:18:53.771Z,93.00
2023-04-08T20:21:20.456Z,96.60
2023-04-08T20:23:47.296Z,98.00
2023-04-08T20:26:14.460Z,96.00
2023-04-08T20:28:41.892Z,93.00
2023-04-08T20:31:09.437Z,95.10
2023-04-08T20:33:38.246Z,99.10
2023-04-08T20:36:05.188Z,99.60
2023-04-08T20:38:35.265Z,99.90
2023-04-08T20:41:02.188Z,99.50
2023-04-08T20:43:28.976Z,99.90
2023-04-08T20:45:55.746Z,99.90
2023-04-08T20:48:22.524Z,99.90
2023-04-08T20:50:49.323Z,99.90
2023-04-08T20:53:17.341Z,99.90
2023-04-08T20:55:44.028Z,99.90
2023-04-08T20:58:11.078Z,99.90
2023-04-08T21:00:37.868Z,99.90
2023-04-08T21:03:04.739Z,99.90
2023-04-08T21:05:31.599Z,99.90
2023-04-08T21:07:58.345Z,99.90
2023-04-08T21:10:25.268Z,99.90
2023-04-08T21:12:51.978Z,99.90
2023-04-08T21:15:18.777Z,99.90
2023-04-08T21:17:45.550Z,99.90
2023-04-08T21:20:12.678Z,99.90
2023-04-08T21:22:39.775Z,99.90
2023-04-08T21:25:06.922Z,99.90
2023-04-08T21:27:33.677Z,99.90
2023-04-08T21:30:00.587Z,99.90
2023-04-08T21:32:29.896Z,99.90
2023-04-08T21:34:57.024Z,99.90
2023-04-08T21:37:23.906Z,99.90
2023-04-08T21:39:51.418Z,99.90
2023-04-08T21:42:22.585Z,99.90
2023-04-08T21:44:49.723Z,99.90
2023-04-08T21:47:16.681Z,99.90
2023-04-08T21:49:43.808Z,99.90
2023-04-08T21:52:10.549Z,99.90
2023-04-08T21:54:37.276Z,99.90
2023-04-08T21:57:04.024Z,99.90
2023-04-08T21:59:30.780Z,99.90
2023-04-08T22:01:57.593Z,99.90
2023-04-08T22:04:24.379Z,99.90
2023-04-08T22:06:51.274Z,99.90
2023-04-08T22:09:18.046Z,99.90
2023-04-08T22:11:44.801Z,99.90
2023-04-08T22:14:11.503Z,99.90
2023-04-08T22:16:38.398Z,99.90
2023-04-08T22:19:05.503Z,99.90
2023-04-08T22:21:32.210Z,99.90
2023-04-08T22:23:58.886Z,99.90
2023-04-08T22:26:26.997Z,99.90
2023-04-08T22:28:53.889Z,99.90
2023-04-08T22:31:21.199Z,99.90
2023-04-08T22:33:48.142Z,99.90
2023-04-08T22:36:14.829Z,99.90
2023-04-08T22:38:41.811Z,99.90
2023-04-08T22:41:17.938Z,99.90
2023-04-08T22:43:44.664Z,99.90
2023-04-08T22:46:11.860Z,99.90
2023-04-08T22:48:38.566Z,99.90
2023-04-08T22:51:05.451Z,99.90
2023-04-08T22:53:32.144Z,99.90
2023-04-08T22:55:58.850Z,99.90
2023-04-08T22:58:25.618Z,99.90
2023-04-08T23:00:52.308Z,99.90
2023-04-08T23:03:19.139Z,99.90
2023-04-08T23:05:45.936Z,99.90
2023-04-08T23:08:12.636Z,99.90
2023-04-08T23:10:39.374Z,99.90
2023-04-08T23:13:06.185Z,99.90
2023-04-08T23:15:32.944Z,99.90
2023-04-08T23:17:59.831Z,99.90
2023-04-08T23:20:26.648Z,99.90
2023-04-08T23:22:53.330Z,99.90
2023-04-08T23:25:20.333Z,99.90
2023-04-08T23:27:47.124Z,99.90
2023-04-08T23:30:13.852Z,99.90
2023-04-08T23:32:40.649Z,99.90
2023-04-08T23:35:08.376Z,99.90
2023-04-08T23:37:35.101Z,99.90
2023-04-08T23:40:01.799Z,99.90
2023-04-08T23:42:28.602Z,99.90
2023-04-08T23:44:55.280Z,99.90
2023-04-08T23:47:22.193Z,99.90
2023-04-08T23:49:49.045Z,99.90
2023-04-08T23:52:15.863Z,99.90
2023-04-08T23:54:42.576Z,99.90
2023-04-08T23:57:09.235Z,99.90
2023-04-08T23:59:36.123Z,99.90
